Terminal Aerodrome Forecast
Issued by NWS Hastings, NE

Home | Current Version | Previous Version | Text Only | Print | Product List | Glossary On
Versions: 1 2 3 4 5 6 7 8 9 10 11 12 13 14 15 16 17 18
705
FTUS45 KGID 270949 AAA
TAFEAR
TAF AMD
KEAR 270949Z 2710/2806 17007KT P6SM BKN008
     FM271800 10007KT P6SM BKN015
     FM272100 06008KT P6SM VCTS BKN035CB
      AMD LTD TO CLD VIS AND WIND=

USA.gov is the U.S. government's official web portal to all federal, state and local government web resources and services.